sensor_id;sensor_type;location;lat;lon;timestamp;P1;durP1;ratioP1;P2;durP2;ratioP2
50350;SDS011;36250;48.740;22.174;2023-02-15T00:01:10;26.92;;;15.13;;
50350;SDS011;36250;48.740;22.174;2023-02-15T00:03:36;32.92;;;17.08;;
50350;SDS011;36250;48.740;22.174;2023-02-15T00:06:03;31.77;;;17.75;;
50350;SDS011;36250;48.740;22.174;2023-02-15T00:08:29;29.73;;;16.13;;
50350;SDS011;36250;48.740;22.174;2023-02-15T00:11:05;28.50;;;17.02;;
50350;SDS011;36250;48.740;22.174;2023-02-15T00:13:32;23.50;;;15.20;;
50350;SDS011;36250;48.740;22.174;2023-02-15T00:16:04;31.77;;;18.48;;
50350;SDS011;36250;48.740;22.174;2023-02-15T00:18:34;30.83;;;17.08;;
50350;SDS011;36250;48.740;22.174;2023-02-15T00:21:03;33.97;;;18.88;;
50350;SDS011;36250;48.740;22.174;2023-02-15T00:23:29;35.58;;;18.67;;
50350;SDS011;36250;48.740;22.174;2023-02-15T00:26:08;31.25;;;17.77;;
50350;SDS011;36250;48.740;22.174;2023-02-15T00:28:36;30.73;;;17.05;;
50350;SDS011;36250;48.740;22.174;2023-02-15T00:31:02;33.33;;;17.55;;
50350;SDS011;36250;48.740;22.174;2023-02-15T00:33:30;27.83;;;17.13;;
50350;SDS011;36250;48.740;22.174;2023-02-15T00:35:57;38.33;;;20.33;;
50350;SDS011;36250;48.740;22.174;2023-02-15T00:38:23;36.25;;;20.00;;
50350;SDS011;36250;48.740;22.174;2023-02-15T00:40:52;29.30;;;17.67;;
50350;SDS011;36250;48.740;22.174;2023-02-15T00:43:18;26.73;;;16.35;;
50350;SDS011;36250;48.740;22.174;2023-02-15T00:45:44;26.42;;;16.35;;
50350;SDS011;36250;48.740;22.174;2023-02-15T00:48:10;30.77;;;16.95;;
50350;SDS011;36250;48.740;22.174;2023-02-15T00:50:35;24.98;;;14.98;;
50350;SDS011;36250;48.740;22.174;2023-02-15T00:53:00;29.23;;;16.65;;
50350;SDS011;36250;48.740;22.174;2023-02-15T00:55:26;26.77;;;16.15;;
50350;SDS011;36250;48.740;22.174;2023-02-15T00:57:51;26.77;;;14.85;;
50350;SDS011;36250;48.740;22.174;2023-02-15T01:00:16;28.75;;;17.77;;
50350;SDS011;36250;48.740;22.174;2023-02-15T01:02:42;30.80;;;15.10;;
50350;SDS011;36250;48.740;22.174;2023-02-15T01:05:07;28.08;;;16.80;;
50350;SDS011;36250;48.740;22.174;2023-02-15T01:07:32;30.98;;;19.10;;
50350;SDS011;36250;48.740;22.174;2023-02-15T01:09:58;27.40;;;16.35;;
50350;SDS011;36250;48.740;22.174;2023-02-15T01:12:23;25.80;;;13.85;;
50350;SDS011;36250;48.740;22.174;2023-02-15T01:14:48;24.35;;;15.23;;
50350;SDS011;36250;48.740;22.174;2023-02-15T01:17:14;34.25;;;15.55;;
50350;SDS011;36250;48.740;22.174;2023-02-15T01:19:39;26.10;;;14.63;;
50350;SDS011;36250;48.740;22.174;2023-02-15T01:22:04;25.80;;;15.55;;
50350;SDS011;36250;48.740;22.174;2023-02-15T01:24:30;23.45;;;14.15;;
50350;SDS011;36250;48.740;22.174;2023-02-15T01:26:55;27.25;;;15.43;;
50350;SDS011;36250;48.740;22.174;2023-02-15T01:29:21;24.75;;;15.88;;
50350;SDS011;36250;48.740;22.174;2023-02-15T01:31:46;29.40;;;16.40;;
50350;SDS011;36250;48.740;22.174;2023-02-15T01:34:11;28.65;;;18.13;;
50350;SDS011;36250;48.740;22.174;2023-02-15T01:36:36;29.75;;;16.15;;
50350;SDS011;36250;48.740;22.174;2023-02-15T01:39:02;24.55;;;16.15;;
50350;SDS011;36250;48.740;22.174;2023-02-15T01:41:27;30.85;;;16.60;;
50350;SDS011;36250;48.740;22.174;2023-02-15T01:43:57;28.13;;;16.20;;
50350;SDS011;36250;48.740;22.174;2023-02-15T01:46:28;25.13;;;16.67;;
50350;SDS011;36250;48.740;22.174;2023-02-15T01:49:03;27.75;;;16.48;;
50350;SDS011;36250;48.740;22.174;2023-02-15T01:51:34;30.75;;;17.98;;
50350;SDS011;36250;48.740;22.174;2023-02-15T01:54:03;32.72;;;19.08;;
50350;SDS011;36250;48.740;22.174;2023-02-15T01:56:33;32.15;;;18.75;;
50350;SDS011;36250;48.740;22.174;2023-02-15T01:59:03;34.25;;;18.85;;
50350;SDS011;36250;48.740;22.174;2023-02-15T02:01:33;28.23;;;16.67;;
50350;SDS011;36250;48.740;22.174;2023-02-15T02:04:18;29.73;;;17.08;;
50350;SDS011;36250;48.740;22.174;2023-02-15T02:06:54;32.00;;;17.70;;
50350;SDS011;36250;48.740;22.174;2023-02-15T02:09:22;34.42;;;19.27;;
50350;SDS011;36250;48.740;22.174;2023-02-15T02:11:48;39.75;;;19.50;;
50350;SDS011;36250;48.740;22.174;2023-02-15T02:14:13;36.65;;;21.55;;
50350;SDS011;36250;48.740;22.174;2023-02-15T02:16:46;35.78;;;20.48;;
50350;SDS011;36250;48.740;22.174;2023-02-15T02:30:49;38.28;;;19.58;;
50350;SDS011;36250;48.740;22.174;2023-02-15T02:42:02;39.33;;;20.55;;
50350;SDS011;36250;48.740;22.174;2023-02-15T02:44:36;33.90;;;19.92;;
50350;SDS011;36250;48.740;22.174;2023-02-15T02:49:52;34.00;;;19.95;;
50350;SDS011;36250;48.740;22.174;2023-02-15T02:55:03;34.33;;;19.13;;
50350;SDS011;36250;48.740;22.174;2023-02-15T02:57:31;39.38;;;19.90;;
50350;SDS011;36250;48.740;22.174;2023-02-15T02:59:59;46.97;;;22.77;;
50350;SDS011;36250;48.740;22.174;2023-02-15T03:02:29;45.67;;;23.90;;
50350;SDS011;36250;48.740;22.174;2023-02-15T03:05:02;45.38;;;24.25;;
50350;SDS011;36250;48.740;22.174;2023-02-15T03:07:31;44.28;;;24.38;;
50350;SDS011;36250;48.740;22.174;2023-02-15T03:10:02;50.72;;;26.38;;
50350;SDS011;36250;48.740;22.174;2023-02-15T03:12:31;59.42;;;28.20;;
50350;SDS011;36250;48.740;22.174;2023-02-15T03:15:01;65.18;;;30.33;;
50350;SDS011;36250;48.740;22.174;2023-02-15T03:17:30;68.13;;;34.30;;
50350;SDS011;36250;48.740;22.174;2023-02-15T03:19:59;78.72;;;34.95;;
50350;SDS011;36250;48.740;22.174;2023-02-15T03:22:29;75.40;;;36.45;;
50350;SDS011;36250;48.740;22.174;2023-02-15T03:25:10;82.20;;;37.20;;
50350;SDS011;36250;48.740;22.174;2023-02-15T03:27:39;87.10;;;40.88;;
50350;SDS011;36250;48.740;22.174;2023-02-15T03:30:10;83.63;;;38.83;;
50350;SDS011;36250;48.740;22.174;2023-02-15T03:32:38;85.93;;;39.08;;
50350;SDS011;36250;48.740;22.174;2023-02-15T03:35:05;80.97;;;38.28;;
50350;SDS011;36250;48.740;22.174;2023-02-15T03:37:36;89.22;;;40.42;;
50350;SDS011;36250;48.740;22.174;2023-02-15T03:45:40;71.60;;;35.08;;
50350;SDS011;36250;48.740;22.174;2023-02-15T03:48:20;76.18;;;35.50;;
50350;SDS011;36250;48.740;22.174;2023-02-15T03:50:49;57.42;;;28.65;;
50350;SDS011;36250;48.740;22.174;2023-02-15T03:53:35;63.65;;;29.90;;
50350;SDS011;36250;48.740;22.174;2023-02-15T03:56:01;55.15;;;27.27;;
50350;SDS011;36250;48.740;22.174;2023-02-15T03:58:27;61.78;;;28.52;;
50350;SDS011;36250;48.740;22.174;2023-02-15T04:01:13;61.50;;;28.38;;
50350;SDS011;36250;48.740;22.174;2023-02-15T04:04:07;55.33;;;25.95;;
50350;SDS011;36250;48.740;22.174;2023-02-15T04:06:40;45.47;;;23.33;;
50350;SDS011;36250;48.740;22.174;2023-02-15T04:09:06;49.70;;;25.67;;
50350;SDS011;36250;48.740;22.174;2023-02-15T04:11:50;41.05;;;22.30;;
50350;SDS011;36250;48.740;22.174;2023-02-15T04:14:15;43.00;;;23.77;;
50350;SDS011;36250;48.740;22.174;2023-02-15T04:16:59;53.05;;;24.38;;
50350;SDS011;36250;48.740;22.174;2023-02-15T04:19:24;50.70;;;26.10;;
50350;SDS011;36250;48.740;22.174;2023-02-15T04:22:08;57.67;;;26.73;;
50350;SDS011;36250;48.740;22.174;2023-02-15T04:24:52;55.70;;;27.40;;
50350;SDS011;36250;48.740;22.174;2023-02-15T04:27:36;52.00;;;25.77;;
50350;SDS011;36250;48.740;22.174;2023-02-15T04:30:04;51.90;;;25.08;;
50350;SDS011;36250;48.740;22.174;2023-02-15T04:32:30;50.25;;;26.05;;
50350;SDS011;36250;48.740;22.174;2023-02-15T04:34:55;54.45;;;27.95;;
50350;SDS011;36250;48.740;22.174;2023-02-15T04:37:21;52.75;;;25.80;;
50350;SDS011;36250;48.740;22.174;2023-02-15T04:39:46;51.75;;;24.67;;
50350;SDS011;36250;48.740;22.174;2023-02-15T04:42:11;50.38;;;25.52;;
50350;SDS011;36250;48.740;22.174;2023-02-15T04:44:37;49.15;;;24.10;;
50350;SDS011;36250;48.740;22.174;2023-02-15T04:47:02;53.70;;;25.15;;
50350;SDS011;36250;48.740;22.174;2023-02-15T04:49:27;56.55;;;26.75;;
50350;SDS011;36250;48.740;22.174;2023-02-15T04:51:53;49.85;;;24.23;;
50350;SDS011;36250;48.740;22.174;2023-02-15T04:54:18;53.58;;;26.67;;
50350;SDS011;36250;48.740;22.174;2023-02-15T04:56:43;55.67;;;27.55;;
50350;SDS011;36250;48.740;22.174;2023-02-15T04:59:11;79.20;;;35.83;;
50350;SDS011;36250;48.740;22.174;2023-02-15T05:01:37;66.28;;;32.28;;
50350;SDS011;36250;48.740;22.174;2023-02-15T05:04:03;66.13;;;32.63;;
50350;SDS011;36250;48.740;22.174;2023-02-15T05:06:28;64.25;;;29.98;;
50350;SDS011;36250;48.740;22.174;2023-02-15T05:08:54;67.78;;;33.33;;
50350;SDS011;36250;48.740;22.174;2023-02-15T05:11:19;77.18;;;38.97;;
50350;SDS011;36250;48.740;22.174;2023-02-15T05:13:44;80.95;;;40.72;;
50350;SDS011;36250;48.740;22.174;2023-02-15T05:16:10;80.25;;;39.75;;
50350;SDS011;36250;48.740;22.174;2023-02-15T05:18:35;81.35;;;39.40;;
50350;SDS011;36250;48.740;22.174;2023-02-15T05:21:00;104.50;;;53.15;;
50350;SDS011;36250;48.740;22.174;2023-02-15T05:23:26;81.00;;;39.83;;
50350;SDS011;36250;48.740;22.174;2023-02-15T05:25:51;108.22;;;55.22;;
50350;SDS011;36250;48.740;22.174;2023-02-15T05:28:35;99.38;;;50.35;;
50350;SDS011;36250;48.740;22.174;2023-02-15T05:33:38;87.38;;;44.97;;
50350;SDS011;36250;48.740;22.174;2023-02-15T05:36:04;82.57;;;41.72;;
50350;SDS011;36250;48.740;22.174;2023-02-15T05:38:30;72.35;;;36.72;;
50350;SDS011;36250;48.740;22.174;2023-02-15T05:40:56;72.43;;;34.88;;
50350;SDS011;36250;48.740;22.174;2023-02-15T05:43:21;80.90;;;38.83;;
50350;SDS011;36250;48.740;22.174;2023-02-15T05:45:51;83.07;;;41.78;;
50350;SDS011;36250;48.740;22.174;2023-02-15T05:48:19;72.15;;;35.58;;
50350;SDS011;36250;48.740;22.174;2023-02-15T05:50:45;73.22;;;39.40;;
50350;SDS011;36250;48.740;22.174;2023-02-15T05:53:11;70.45;;;37.42;;
50350;SDS011;36250;48.740;22.174;2023-02-15T05:55:38;72.90;;;37.10;;
50350;SDS011;36250;48.740;22.174;2023-02-15T05:58:04;77.45;;;42.63;;
50350;SDS011;36250;48.740;22.174;2023-02-15T06:00:29;97.07;;;48.47;;
50350;SDS011;36250;48.740;22.174;2023-02-15T06:02:54;131.27;;;67.32;;
50350;SDS011;36250;48.740;22.174;2023-02-15T06:05:20;149.55;;;78.25;;
50350;SDS011;36250;48.740;22.174;2023-02-15T06:07:45;154.40;;;80.95;;
50350;SDS011;36250;48.740;22.174;2023-02-15T06:10:10;136.18;;;71.53;;
50350;SDS011;36250;48.740;22.174;2023-02-15T06:12:36;121.80;;;62.67;;
50350;SDS011;36250;48.740;22.174;2023-02-15T06:15:02;132.05;;;66.32;;
50350;SDS011;36250;48.740;22.174;2023-02-15T06:17:28;134.27;;;66.35;;
50350;SDS011;36250;48.740;22.174;2023-02-15T06:19:53;114.50;;;61.03;;
50350;SDS011;36250;48.740;22.174;2023-02-15T06:22:18;75.22;;;39.03;;
50350;SDS011;36250;48.740;22.174;2023-02-15T06:24:45;79.18;;;41.03;;
50350;SDS011;36250;48.740;22.174;2023-02-15T06:27:10;87.43;;;45.72;;
50350;SDS011;36250;48.740;22.174;2023-02-15T06:29:36;77.70;;;39.83;;
50350;SDS011;36250;48.740;22.174;2023-02-15T06:32:01;83.80;;;44.13;;
50350;SDS011;36250;48.740;22.174;2023-02-15T06:34:27;88.10;;;46.60;;
50350;SDS011;36250;48.740;22.174;2023-02-15T06:36:52;86.13;;;44.88;;
50350;SDS011;36250;48.740;22.174;2023-02-15T06:39:17;85.75;;;43.15;;
50350;SDS011;36250;48.740;22.174;2023-02-15T06:41:43;101.47;;;53.75;;
50350;SDS011;36250;48.740;22.174;2023-02-15T06:44:08;98.10;;;51.55;;
50350;SDS011;36250;48.740;22.174;2023-02-15T06:46:33;90.55;;;49.42;;
50350;SDS011;36250;48.740;22.174;2023-02-15T06:48:59;74.97;;;41.53;;
50350;SDS011;36250;48.740;22.174;2023-02-15T06:51:25;80.30;;;41.58;;
50350;SDS011;36250;48.740;22.174;2023-02-15T06:53:50;69.43;;;37.90;;
50350;SDS011;36250;48.740;22.174;2023-02-15T06:56:15;70.82;;;38.85;;
50350;SDS011;36250;48.740;22.174;2023-02-15T06:58:41;78.93;;;40.55;;
50350;SDS011;36250;48.740;22.174;2023-02-15T07:01:07;72.63;;;36.13;;
50350;SDS011;36250;48.740;22.174;2023-02-15T07:03:33;75.18;;;37.90;;
50350;SDS011;36250;48.740;22.174;2023-02-15T07:06:00;77.65;;;40.95;;
50350;SDS011;36250;48.740;22.174;2023-02-15T07:08:27;165.82;;;65.88;;
50350;SDS011;36250;48.740;22.174;2023-02-15T07:10:53;106.22;;;50.88;;
50350;SDS011;36250;48.740;22.174;2023-02-15T07:13:40;92.82;;;45.13;;
50350;SDS011;36250;48.740;22.174;2023-02-15T07:16:07;85.38;;;42.28;;
50350;SDS011;36250;48.740;22.174;2023-02-15T07:18:33;79.45;;;40.55;;
50350;SDS011;36250;48.740;22.174;2023-02-15T07:20:58;69.55;;;36.22;;
50350;SDS011;36250;48.740;22.174;2023-02-15T07:23:23;73.65;;;37.65;;
50350;SDS011;36250;48.740;22.174;2023-02-15T07:25:55;70.72;;;35.08;;
50350;SDS011;36250;48.740;22.174;2023-02-15T07:28:22;80.38;;;38.83;;
50350;SDS011;36250;48.740;22.174;2023-02-15T07:30:47;102.68;;;46.42;;
50350;SDS011;36250;48.740;22.174;2023-02-15T07:33:13;38.47;;;22.20;;
50350;SDS011;36250;48.740;22.174;2023-02-15T07:35:55;48.17;;;25.40;;
50350;SDS011;36250;48.740;22.174;2023-02-15T07:38:23;71.43;;;32.40;;
50350;SDS011;36250;48.740;22.174;2023-02-15T07:40:49;64.82;;;35.33;;
50350;SDS011;36250;48.740;22.174;2023-02-15T07:43:14;59.47;;;34.72;;
50350;SDS011;36250;48.740;22.174;2023-02-15T07:45:39;54.65;;;31.00;;
50350;SDS011;36250;48.740;22.174;2023-02-15T07:48:06;51.20;;;29.58;;
50350;SDS011;36250;48.740;22.174;2023-02-15T07:50:32;65.55;;;37.65;;
50350;SDS011;36250;48.740;22.174;2023-02-15T07:52:58;131.88;;;80.05;;
50350;SDS011;36250;48.740;22.174;2023-02-15T07:55:26;152.10;;;78.32;;
50350;SDS011;36250;48.740;22.174;2023-02-15T07:57:52;62.97;;;35.80;;
50350;SDS011;36250;48.740;22.174;2023-02-15T08:00:19;63.70;;;35.88;;
50350;SDS011;36250;48.740;22.174;2023-02-15T08:02:48;72.32;;;43.22;;
50350;SDS011;36250;48.740;22.174;2023-02-15T08:05:38;56.35;;;32.30;;
50350;SDS011;36250;48.740;22.174;2023-02-15T08:08:05;56.10;;;30.77;;
50350;SDS011;36250;48.740;22.174;2023-02-15T08:10:31;57.92;;;31.02;;
50350;SDS011;36250;48.740;22.174;2023-02-15T08:13:15;57.33;;;31.38;;
50350;SDS011;36250;48.740;22.174;2023-02-15T08:15:47;75.57;;;39.45;;
50350;SDS011;36250;48.740;22.174;2023-02-15T08:18:13;77.13;;;38.83;;
50350;SDS011;36250;48.740;22.174;2023-02-15T08:20:38;71.82;;;37.67;;
50350;SDS011;36250;48.740;22.174;2023-02-15T08:23:04;59.40;;;32.05;;
50350;SDS011;36250;48.740;22.174;2023-02-15T08:25:29;52.65;;;29.73;;
50350;SDS011;36250;48.740;22.174;2023-02-15T08:27:54;50.25;;;28.02;;
50350;SDS011;36250;48.740;22.174;2023-02-15T08:30:20;66.57;;;37.35;;
50350;SDS011;36250;48.740;22.174;2023-02-15T08:32:45;102.30;;;58.85;;
50350;SDS011;36250;48.740;22.174;2023-02-15T08:35:10;56.40;;;33.05;;
50350;SDS011;36250;48.740;22.174;2023-02-15T08:37:36;46.38;;;25.88;;
50350;SDS011;36250;48.740;22.174;2023-02-15T08:40:01;45.08;;;27.58;;
50350;SDS011;36250;48.740;22.174;2023-02-15T08:42:27;53.17;;;31.17;;
50350;SDS011;36250;48.740;22.174;2023-02-15T08:44:53;44.30;;;25.58;;
50350;SDS011;36250;48.740;22.174;2023-02-15T08:47:18;51.78;;;30.20;;
50350;SDS011;36250;48.740;22.174;2023-02-15T08:49:43;41.03;;;24.33;;
50350;SDS011;36250;48.740;22.174;2023-02-15T08:52:09;46.53;;;26.88;;
50350;SDS011;36250;48.740;22.174;2023-02-15T08:54:34;47.70;;;28.25;;
50350;SDS011;36250;48.740;22.174;2023-02-15T08:56:59;37.00;;;21.52;;
50350;SDS011;36250;48.740;22.174;2023-02-15T08:59:25;45.60;;;27.98;;
50350;SDS011;36250;48.740;22.174;2023-02-15T09:01:52;33.40;;;21.83;;
50350;SDS011;36250;48.740;22.174;2023-02-15T09:04:17;36.67;;;22.17;;
50350;SDS011;36250;48.740;22.174;2023-02-15T09:06:44;32.15;;;21.40;;
50350;SDS011;36250;48.740;22.174;2023-02-15T09:09:10;56.60;;;30.85;;
50350;SDS011;36250;48.740;22.174;2023-02-15T09:11:37;34.83;;;21.48;;
50350;SDS011;36250;48.740;22.174;2023-02-15T09:14:08;42.00;;;24.83;;
50350;SDS011;36250;48.740;22.174;2023-02-15T09:16:41;43.88;;;25.73;;
50350;SDS011;36250;48.740;22.174;2023-02-15T09:19:13;37.58;;;22.63;;
50350;SDS011;36250;48.740;22.174;2023-02-15T09:21:39;59.78;;;35.35;;
50350;SDS011;36250;48.740;22.174;2023-02-15T09:24:05;46.53;;;25.23;;
50350;SDS011;36250;48.740;22.174;2023-02-15T09:26:34;43.10;;;25.33;;
50350;SDS011;36250;48.740;22.174;2023-02-15T09:29:01;33.35;;;21.27;;
50350;SDS011;36250;48.740;22.174;2023-02-15T09:31:29;55.90;;;29.30;;
50350;SDS011;36250;48.740;22.174;2023-02-15T09:33:56;42.08;;;24.60;;
50350;SDS011;36250;48.740;22.174;2023-02-15T09:36:34;36.08;;;21.80;;
50350;SDS011;36250;48.740;22.174;2023-02-15T09:39:04;45.10;;;27.63;;
50350;SDS011;36250;48.740;22.174;2023-02-15T09:53:33;32.53;;;20.63;;
50350;SDS011;36250;48.740;22.174;2023-02-15T09:59:02;26.48;;;17.63;;
50350;SDS011;36250;48.740;22.174;2023-02-15T10:07:07;28.08;;;18.45;;
50350;SDS011;36250;48.740;22.174;2023-02-15T10:12:56;37.95;;;21.65;;
50350;SDS011;36250;48.740;22.174;2023-02-15T10:23:10;32.83;;;20.38;;
50350;SDS011;36250;48.740;22.174;2023-02-15T10:25:56;35.85;;;20.92;;
50350;SDS011;36250;48.740;22.174;2023-02-15T10:28:36;36.20;;;20.73;;
50350;SDS011;36250;48.740;22.174;2023-02-15T10:31:13;32.58;;;20.63;;
50350;SDS011;36250;48.740;22.174;2023-02-15T10:33:56;41.78;;;24.35;;
50350;SDS011;36250;48.740;22.174;2023-02-15T10:45:23;29.92;;;18.13;;
50350;SDS011;36250;48.740;22.174;2023-02-15T10:48:05;24.40;;;16.20;;
50350;SDS011;36250;48.740;22.174;2023-02-15T10:53:38;25.98;;;16.20;;
50350;SDS011;36250;48.740;22.174;2023-02-15T11:01:25;39.83;;;22.80;;
50350;SDS011;36250;48.740;22.174;2023-02-15T11:07:14;33.70;;;19.40;;
50350;SDS011;36250;48.740;22.174;2023-02-15T11:09:48;43.28;;;24.65;;
50350;SDS011;36250;48.740;22.174;2023-02-15T11:12:19;30.58;;;19.33;;
50350;SDS011;36250;48.740;22.174;2023-02-15T11:15:05;26.98;;;17.77;;
50350;SDS011;36250;48.740;22.174;2023-02-15T11:17:42;29.00;;;17.70;;
50350;SDS011;36250;48.740;22.174;2023-02-15T11:22:49;47.10;;;27.67;;
50350;SDS011;36250;48.740;22.174;2023-02-15T11:25:19;36.47;;;24.17;;
50350;SDS011;36250;48.740;22.174;2023-02-15T11:27:49;31.25;;;19.80;;
50350;SDS011;36250;48.740;22.174;2023-02-15T11:30:25;49.45;;;32.42;;
50350;SDS011;36250;48.740;22.174;2023-02-15T11:32:55;32.33;;;19.73;;
50350;SDS011;36250;48.740;22.174;2023-02-15T11:35:27;32.72;;;19.90;;
50350;SDS011;36250;48.740;22.174;2023-02-15T11:38:10;35.45;;;22.80;;
50350;SDS011;36250;48.740;22.174;2023-02-15T11:43:19;31.35;;;20.88;;
50350;SDS011;36250;48.740;22.174;2023-02-15T11:46:07;25.02;;;16.67;;
50350;SDS011;36250;48.740;22.174;2023-02-15T11:48:37;25.58;;;16.98;;
50350;SDS011;36250;48.740;22.174;2023-02-15T11:51:03;27.83;;;17.88;;
50350;SDS011;36250;48.740;22.174;2023-02-15T11:53:31;25.20;;;16.33;;
50350;SDS011;36250;48.740;22.174;2023-02-15T11:56:00;28.60;;;18.00;;
50350;SDS011;36250;48.740;22.174;2023-02-15T12:04:07;28.75;;;17.13;;
50350;SDS011;36250;48.740;22.174;2023-02-15T12:09:58;27.50;;;18.52;;
50350;SDS011;36250;48.740;22.174;2023-02-15T12:12:33;22.50;;;16.48;;
50350;SDS011;36250;48.740;22.174;2023-02-15T12:15:01;27.15;;;19.15;;
50350;SDS011;36250;48.740;22.174;2023-02-15T12:17:29;21.63;;;14.90;;
50350;SDS011;36250;48.740;22.174;2023-02-15T12:20:00;54.55;;;38.90;;
50350;SDS011;36250;48.740;22.174;2023-02-15T12:22:28;29.45;;;16.92;;
50350;SDS011;36250;48.740;22.174;2023-02-15T12:24:56;23.98;;;15.45;;
50350;SDS011;36250;48.740;22.174;2023-02-15T12:27:26;41.60;;;24.15;;
50350;SDS011;36250;48.740;22.174;2023-02-15T12:29:54;23.95;;;16.02;;
50350;SDS011;36250;48.740;22.174;2023-02-15T12:32:24;19.55;;;13.85;;
50350;SDS011;36250;48.740;22.174;2023-02-15T12:35:07;29.00;;;18.75;;
50350;SDS011;36250;48.740;22.174;2023-02-15T12:37:39;24.63;;;15.18;;
50350;SDS011;36250;48.740;22.174;2023-02-15T12:40:26;22.83;;;14.80;;
50350;SDS011;36250;48.740;22.174;2023-02-15T12:42:56;21.30;;;14.30;;
50350;SDS011;36250;48.740;22.174;2023-02-15T12:45:26;21.83;;;17.58;;
50350;SDS011;36250;48.740;22.174;2023-02-15T12:50:41;19.25;;;13.95;;
50350;SDS011;36250;48.740;22.174;2023-02-15T12:53:12;18.25;;;13.45;;
50350;SDS011;36250;48.740;22.174;2023-02-15T12:55:38;19.73;;;14.88;;
50350;SDS011;36250;48.740;22.174;2023-02-15T13:00:32;19.52;;;16.10;;
50350;SDS011;36250;48.740;22.174;2023-02-15T13:02:59;23.83;;;15.18;;
50350;SDS011;36250;48.740;22.174;2023-02-15T13:05:28;15.48;;;13.07;;
50350;SDS011;36250;48.740;22.174;2023-02-15T13:07:55;13.43;;;11.82;;
50350;SDS011;36250;48.740;22.174;2023-02-15T13:10:36;22.75;;;15.02;;
50350;SDS011;36250;48.740;22.174;2023-02-15T13:13:10;21.77;;;15.55;;
50350;SDS011;36250;48.740;22.174;2023-02-15T13:15:43;24.40;;;17.15;;
50350;SDS011;36250;48.740;22.174;2023-02-15T13:18:15;22.13;;;16.00;;
50350;SDS011;36250;48.740;22.174;2023-02-15T13:20:48;17.65;;;13.60;;
50350;SDS011;36250;48.740;22.174;2023-02-15T13:25:52;33.28;;;24.05;;
50350;SDS011;36250;48.740;22.174;2023-02-15T13:28:20;44.03;;;29.95;;
50350;SDS011;36250;48.740;22.174;2023-02-15T13:30:49;18.75;;;14.85;;
50350;SDS011;36250;48.740;22.174;2023-02-15T13:33:23;12.15;;;10.68;;
50350;SDS011;36250;48.740;22.174;2023-02-15T13:36:03;14.10;;;11.10;;
50350;SDS011;36250;48.740;22.174;2023-02-15T13:39:01;14.80;;;10.32;;
50350;SDS011;36250;48.740;22.174;2023-02-15T13:41:46;13.93;;;12.52;;
50350;SDS011;36250;48.740;22.174;2023-02-15T13:55:40;10.85;;;9.75;;
50350;SDS011;36250;48.740;22.174;2023-02-15T13:58:23;15.93;;;11.85;;
50350;SDS011;36250;48.740;22.174;2023-02-15T14:09:19;15.13;;;11.57;;
50350;SDS011;36250;48.740;22.174;2023-02-15T14:14:48;12.27;;;10.98;;
50350;SDS011;36250;48.740;22.174;2023-02-15T14:17:30;13.40;;;11.73;;
50350;SDS011;36250;48.740;22.174;2023-02-15T14:20:24;15.98;;;11.63;;
50350;SDS011;36250;48.740;22.174;2023-02-15T14:25:48;19.27;;;14.55;;
50350;SDS011;36250;48.740;22.174;2023-02-15T14:28:41;19.83;;;17.02;;
50350;SDS011;36250;48.740;22.174;2023-02-15T14:31:14;97.88;;;73.88;;
50350;SDS011;36250;48.740;22.174;2023-02-15T14:33:43;23.23;;;18.58;;
50350;SDS011;36250;48.740;22.174;2023-02-15T14:36:18;22.02;;;15.38;;
50350;SDS011;36250;48.740;22.174;2023-02-15T14:46:55;36.65;;;21.38;;
50350;SDS011;36250;48.740;22.174;2023-02-15T14:49:38;36.72;;;27.40;;
50350;SDS011;36250;48.740;22.174;2023-02-15T14:52:08;24.95;;;18.35;;
50350;SDS011;36250;48.740;22.174;2023-02-15T14:59:46;29.98;;;21.83;;
50350;SDS011;36250;48.740;22.174;2023-02-15T15:04:56;37.65;;;24.60;;
50350;SDS011;36250;48.740;22.174;2023-02-15T15:15:15;18.52;;;15.07;;
50350;SDS011;36250;48.740;22.174;2023-02-15T15:30:58;96.20;;;54.75;;
50350;SDS011;36250;48.740;22.174;2023-02-15T15:39:07;55.58;;;31.67;;
50350;SDS011;36250;48.740;22.174;2023-02-15T15:44:34;55.28;;;33.95;;
50350;SDS011;36250;48.740;22.174;2023-02-15T15:49:42;43.55;;;26.65;;
50350;SDS011;36250;48.740;22.174;2023-02-15T15:52:17;44.92;;;27.90;;
50350;SDS011;36250;48.740;22.174;2023-02-15T15:54:46;58.53;;;32.13;;
50350;SDS011;36250;48.740;22.174;2023-02-15T15:57:38;51.10;;;29.58;;
50350;SDS011;36250;48.740;22.174;2023-02-15T16:00:04;46.03;;;26.30;;
50350;SDS011;36250;48.740;22.174;2023-02-15T16:03:18;53.45;;;28.13;;
50350;SDS011;36250;48.740;22.174;2023-02-15T16:05:50;51.55;;;27.67;;
50350;SDS011;36250;48.740;22.174;2023-02-15T16:08:30;51.35;;;27.02;;
50350;SDS011;36250;48.740;22.174;2023-02-15T16:11:07;52.58;;;29.27;;
50350;SDS011;36250;48.740;22.174;2023-02-15T16:13:45;51.10;;;29.27;;
50350;SDS011;36250;48.740;22.174;2023-02-15T16:16:12;47.30;;;26.10;;
50350;SDS011;36250;48.740;22.174;2023-02-15T16:18:44;56.80;;;31.23;;
50350;SDS011;36250;48.740;22.174;2023-02-15T16:21:21;56.92;;;28.98;;
50350;SDS011;36250;48.740;22.174;2023-02-15T16:24:01;44.63;;;25.77;;
50350;SDS011;36250;48.740;22.174;2023-02-15T16:29:28;50.00;;;28.25;;
50350;SDS011;36250;48.740;22.174;2023-02-15T16:32:14;49.95;;;28.88;;
50350;SDS011;36250;48.740;22.174;2023-02-15T16:37:20;70.28;;;37.95;;
50350;SDS011;36250;48.740;22.174;2023-02-15T16:39:48;90.28;;;45.25;;
50350;SDS011;36250;48.740;22.174;2023-02-15T16:42:15;83.43;;;42.22;;
50350;SDS011;36250;48.740;22.174;2023-02-15T16:44:42;76.45;;;40.10;;
50350;SDS011;36250;48.740;22.174;2023-02-15T16:47:12;77.40;;;41.58;;
50350;SDS011;36250;48.740;22.174;2023-02-15T16:49:46;75.03;;;39.88;;
50350;SDS011;36250;48.740;22.174;2023-02-15T16:52:15;79.40;;;39.55;;
50350;SDS011;36250;48.740;22.174;2023-02-15T16:54:52;70.53;;;40.25;;
50350;SDS011;36250;48.740;22.174;2023-02-15T16:57:22;83.60;;;42.00;;
50350;SDS011;36250;48.740;22.174;2023-02-15T16:59:52;78.38;;;42.22;;
50350;SDS011;36250;48.740;22.174;2023-02-15T17:02:27;67.45;;;38.90;;
50350;SDS011;36250;48.740;22.174;2023-02-15T17:07:38;67.90;;;36.15;;
50350;SDS011;36250;48.740;22.174;2023-02-15T17:10:26;79.93;;;39.15;;
50350;SDS011;36250;48.740;22.174;2023-02-15T17:12:55;83.30;;;42.53;;
50350;SDS011;36250;48.740;22.174;2023-02-15T17:17:58;104.00;;;54.30;;
50350;SDS011;36250;48.740;22.174;2023-02-15T17:20:44;96.57;;;50.83;;
50350;SDS011;36250;48.740;22.174;2023-02-15T17:23:32;85.93;;;48.10;;
50350;SDS011;36250;48.740;22.174;2023-02-15T17:31:45;77.95;;;39.47;;
50350;SDS011;36250;48.740;22.174;2023-02-15T17:34:40;67.10;;;35.35;;
50350;SDS011;36250;48.740;22.174;2023-02-15T17:39:56;71.63;;;38.00;;
50350;SDS011;36250;48.740;22.174;2023-02-15T17:42:22;75.30;;;37.20;;
50350;SDS011;36250;48.740;22.174;2023-02-15T17:44:48;76.00;;;35.65;;
50350;SDS011;36250;48.740;22.174;2023-02-15T17:47:15;81.60;;;40.42;;